Cedarcreek, Missouri
Current Conditions -  °F | °C
As of 9:45 AM on Tuesday 21 Oct 2014 (Local Time) from KBBG Reporting Station
Clear Clear  
Wind Chill: 63°   Ceiling: Unl
Heat Index: 63°   Visibility: 10mi
Dew Point: 59°   Wind: 0mph
Humidity: 88%   Direction: NA
Pressure: 30.16"   Gusts: NA
Location:  36.58°N, 92.99°W
Report Text: KBBG 211445Z 00000KT 10SM SKC 17/15 A3016
Loading
Personal Weather Stations






























Interactive Weather Map
Tropical Storm Tracking
New forecast layout! Learn more

10-Day Weather Forecast

Advertisements
Track Severe Weather on mobile